Time;durP1;ratioP1;P1;durP2;ratioP2;P2;SDS_P1;SDS_P2;PMS_P1;PMS_P2;Temp;Humidity;BMP_temperature;BMP_pressure;BME280_temperature;BME280_humidity;BME280_pressure;Samples;Min_cycle;Max_cycle;Signal;HPM_P1;HPM_P2
2022/07/16 00:02:26;;;;;;;1.50;1.40;;;;;;;14.60;62.77;102051.50;5092270;28;20089;-82
2022/07/16 00:04:51;;;;;;;1.27;1.27;;;;;;;14.64;63.42;102044.47;5092469;28;20028;-82
2022/07/16 00:07:16;;;;;;;1.37;1.37;;;;;;;14.66;63.19;102048.78;5092797;28;20108;-82
2022/07/16 00:09:41;;;;;;;1.10;1.10;;;;;;;14.72;63.05;102041.78;5107193;28;20054;-82
2022/07/16 00:12:07;;;;;;;1.30;1.30;;;;;;;14.76;62.88;102046.06;5112291;28;20024;-82
2022/07/16 00:14:32;;;;;;;1.40;1.30;;;;;;;14.81;62.90;102046.88;5112628;28;20031;-82
2022/07/16 00:16:58;;;;;;;1.50;1.40;;;;;;;14.83;63.11;102056.44;5111503;28;20028;-82
2022/07/16 00:19:23;;;;;;;1.30;1.30;;;;;;;14.85;63.17;102052.94;5112870;28;20027;-82
2022/07/16 00:21:52;;;;;;;1.03;1.03;;;;;;;14.87;63.14;102051.16;5112430;28;20104;-82
2022/07/16 00:24:18;;;;;;;1.40;1.30;;;;;;;14.86;63.25;102052.91;5112055;28;20047;-82
2022/07/16 00:26:43;;;;;;;1.17;1.17;;;;;;;14.86;63.38;102055.50;5115472;28;20020;-82
2022/07/16 00:29:09;;;;;;;1.10;1.10;;;;;;;14.85;63.34;102055.53;5116127;28;20042;-81
2022/07/16 00:31:35;;;;;;;1.00;1.00;;;;;;;14.84;63.25;102057.31;5116663;28;20102;-82
2022/07/16 00:34:01;;;;;;;1.27;1.20;;;;;;;14.83;63.19;102052.97;5116661;28;20028;-82
2022/07/16 00:36:26;;;;;;;1.20;1.20;;;;;;;14.81;63.80;102059.97;5116178;28;20069;-82
2022/07/16 00:38:51;;;;;;;1.40;1.30;;;;;;;14.82;64.00;102061.69;5116391;28;20092;-81
2022/07/16 00:41:16;;;;;;;1.20;1.20;;;;;;;14.80;63.95;102053.00;5116763;28;20177;-81
2022/07/16 00:43:46;;;;;;;1.33;1.23;;;;;;;14.81;63.73;102057.34;5116216;28;20016;-82
2022/07/16 00:46:11;;;;;;;1.25;1.25;;;;;;;14.80;64.01;102056.50;5116220;28;20055;-82
2022/07/16 00:48:36;;;;;;;1.30;1.20;;;;;;;14.82;63.83;102059.06;5115526;28;20238;-82
2022/07/16 00:51:02;;;;;;;1.47;1.37;;;;;;;14.83;63.90;102050.34;5115752;28;20051;-82
2022/07/16 00:53:27;;;;;;;1.37;1.33;;;;;;;14.87;64.16;102057.25;5116822;28;20019;-82
2022/07/16 00:55:52;;;;;;;1.30;1.20;;;;;;;14.89;64.28;102054.63;5116167;27;20157;-82
2022/07/16 00:58:18;;;;;;;0.97;0.97;;;;;;;14.91;64.66;102047.63;5115648;28;20031;-82
2022/07/16 01:00:43;;;;;;;1.20;1.20;;;;;;;14.93;64.56;102048.44;5104852;28;20051;-82
2022/07/16 01:03:08;;;;;;;1.20;1.20;;;;;;;14.94;64.80;102050.19;5099967;28;20847;-82
2022/07/16 01:05:34;;;;;;;1.17;1.10;;;;;;;14.96;64.94;102051.91;5115597;27;20044;-82
2022/07/16 01:08:00;;;;;;;1.10;1.10;;;;;;;14.96;64.70;102043.19;5115200;28;20122;-82
2022/07/16 01:10:26;;;;;;;1.20;1.10;;;;;;;14.97;64.23;102043.16;5116123;28;20115;-82
2022/07/16 01:12:51;;;;;;;0.90;0.90;;;;;;;14.98;64.61;102038.81;5114164;28;20475;-82
2022/07/16 01:15:17;;;;;;;1.03;1.03;;;;;;;14.98;64.63;102036.19;5116388;28;20028;-82
2022/07/16 01:17:42;;;;;;;1.00;1.00;;;;;;;15.01;64.30;102035.28;5116160;28;20027;-82
2022/07/16 01:20:08;;;;;;;1.27;1.10;;;;;;;15.02;64.19;102037.00;5114849;28;20027;-82
2022/07/16 01:22:33;;;;;;;1.00;1.00;;;;;;;15.04;64.47;102037.84;5116192;28;20023;-82
2022/07/16 01:24:58;;;;;;;1.07;1.00;;;;;;;15.04;64.26;102030.00;5115072;28;20028;-82
2022/07/16 01:27:24;;;;;;;1.20;1.20;;;;;;;15.03;64.32;102033.50;5115319;27;20028;-82
2022/07/16 01:29:49;;;;;;;0.97;0.97;;;;;;;15.02;64.35;102035.28;5115552;28;20031;-82
2022/07/16 01:32:15;;;;;;;1.60;1.50;;;;;;;15.01;64.08;102028.31;5115518;28;20175;-82
2022/07/16 01:34:40;;;;;;;1.17;1.17;;;;;;;15.02;64.36;102034.41;5115191;28;20110;-82
2022/07/16 01:37:08;;;;;;;1.47;1.37;;;;;;;15.01;64.11;102038.78;5115032;28;20027;-82
2022/07/16 01:39:36;;;;;;;1.65;1.50;;;;;;;15.01;64.39;102041.38;5114273;28;20028;-81
2022/07/16 01:42:04;;;;;;;2.08;1.40;;;;;;;14.98;65.18;102038.81;5115304;28;20020;-82
2022/07/16 01:44:31;;;;;;;1.33;1.23;;;;;;;14.97;64.95;102042.31;5114770;28;20051;-82
2022/07/16 01:46:58;;;;;;;1.20;1.10;;;;;;;14.96;64.82;102045.81;5114960;28;20020;-82
2022/07/16 01:49:24;;;;;;;1.45;1.10;;;;;;;14.97;64.71;102042.31;5115130;28;20044;-82
2022/07/16 01:51:50;;;;;;;1.10;1.10;;;;;;;14.98;64.50;102046.66;5111601;28;20024;-83
2022/07/16 01:54:15;;;;;;;1.03;1.03;;;;;;;14.98;65.13;102044.03;5094178;28;20028;-83
2022/07/16 01:56:41;;;;;;;0.80;0.80;;;;;;;14.96;65.27;102040.56;5095121;28;20025;-83
2022/07/16 01:59:06;;;;;;;0.70;0.70;;;;;;;14.96;64.94;102049.28;5094481;28;20027;-83
2022/07/16 02:01:31;;;;;;;1.13;1.07;;;;;;;14.95;65.18;102039.72;5107226;28;20036;-83
2022/07/16 02:03:57;;;;;;;1.30;1.20;;;;;;;14.94;64.39;102038.00;5114738;28;20032;-83
2022/07/16 02:06:23;;;;;;;1.20;1.10;;;;;;;14.94;64.59;102039.72;5115456;28;20027;-83
2022/07/16 02:08:48;;;;;;;0.80;0.80;;;;;;;14.92;64.59;102034.53;5114317;28;20028;-83
2022/07/16 02:11:14;;;;;;;0.90;0.90;;;;;;;14.91;65.08;102032.81;5115220;28;20115;-83
2022/07/16 02:13:39;;;;;;;0.80;0.80;;;;;;;14.90;64.73;102038.91;5115001;28;20031;-83
2022/07/16 02:16:05;;;;;;;0.80;0.80;;;;;;;14.91;64.88;102031.94;5113901;28;20033;-83
2022/07/16 02:18:30;;;;;;;0.87;0.83;;;;;;;14.93;64.80;102036.25;5114839;28;20110;-83
2022/07/16 02:20:56;;;;;;;1.10;0.80;;;;;;;14.94;65.15;102030.16;5114809;28;20035;-83
2022/07/16 02:23:21;;;;;;;0.97;0.97;;;;;;;14.95;65.88;102031.88;5113854;28;20047;-83
2022/07/16 02:25:46;;;;;;;1.03;1.03;;;;;;;14.96;65.28;102038.84;5114585;28;20081;-83
2022/07/16 02:28:12;;;;;;;0.60;0.60;;;;;;;14.98;64.73;102029.19;5114356;28;20021;-83
2022/07/16 02:30:40;;;;;;;0.90;0.90;;;;;;;15.00;64.50;102029.19;5113987;28;20489;-83
2022/07/16 02:33:06;;;;;;;1.00;1.00;;;;;;;15.02;65.24;102030.03;5114327;28;20024;-83
2022/07/16 02:35:33;;;;;;;0.90;0.90;;;;;;;15.03;64.88;102025.66;5114782;28;20062;-83
2022/07/16 02:37:58;;;;;;;1.25;1.00;;;;;;;15.04;64.72;102016.94;5113684;28;20024;-82
2022/07/16 02:40:25;;;;;;;0.87;0.87;;;;;;;15.06;64.59;102021.25;5114529;28;20444;-83
2022/07/16 02:42:50;;;;;;;1.27;1.15;;;;;;;15.07;64.75;102022.13;5113579;28;20032;-83
2022/07/16 02:45:15;;;;;;;1.03;1.00;;;;;;;15.08;64.31;102021.25;5114388;28;20096;-83
2022/07/16 02:47:41;;;;;;;0.90;0.90;;;;;;;15.10;64.23;102028.16;5114239;28;20028;-83
2022/07/16 02:50:08;;;;;;;1.03;0.90;;;;;;;15.13;64.07;102028.13;5111745;27;20130;-83
2022/07/16 02:52:33;;;;;;;1.20;1.10;;;;;;;15.15;64.71;102022.88;5114227;28;20132;-83
2022/07/16 02:54:58;;;;;;;1.70;1.37;;;;;;;15.17;65.11;102025.44;5113893;28;20051;-82
2022/07/16 02:57:24;;;;;;;1.30;1.20;;;;;;;15.16;64.39;102028.94;5113005;28;20023;-82
2022/07/16 02:59:49;;;;;;;1.33;1.23;;;;;;;15.17;64.33;102025.44;5113956;28;20019;-82
2022/07/16 03:02:14;;;;;;;1.00;1.00;;;;;;;15.18;63.99;102020.22;5114382;28;20053;-82
2022/07/16 03:04:40;;;;;;;1.20;1.10;;;;;;;15.19;63.91;102027.16;5113639;28;20020;-82
2022/07/16 03:07:05;;;;;;;1.00;1.00;;;;;;;15.21;64.16;102027.13;5113576;28;20543;-82
2022/07/16 03:09:30;;;;;;;1.23;1.17;;;;;;;15.22;64.22;102029.72;5114111;28;20035;-83
2022/07/16 03:11:56;;;;;;;1.20;1.10;;;;;;;15.22;64.83;102027.09;5112737;27;20027;-83
2022/07/16 03:14:21;;;;;;;1.00;1.00;;;;;;;15.24;64.35;102032.31;5113863;27;20055;-82
2022/07/16 03:16:46;;;;;;;0.80;0.80;;;;;;;15.23;64.08;102027.97;5113278;28;20062;-83
2022/07/16 03:19:12;;;;;;;0.70;0.70;;;;;;;15.22;64.24;102029.72;5112674;28;20111;-83
2022/07/16 03:21:37;;;;;;;0.90;0.90;;;;;;;15.21;64.32;102028.00;5113871;28;20032;-82
2022/07/16 03:24:02;;;;;;;0.90;0.90;;;;;;;15.21;64.07;102032.38;5113476;28;20038;-83
2022/07/16 03:26:28;;;;;;;0.93;0.93;;;;;;;15.22;63.80;102029.72;5112967;28;20041;-82
2022/07/16 03:28:53;;;;;;;0.70;0.70;;;;;;;15.24;64.18;102041.03;5113157;28;20031;-83
2022/07/16 03:31:21;;;;;;;1.40;1.27;;;;;;;15.22;64.71;102034.94;5113566;28;20028;-83
2022/07/16 03:33:46;;;;;;;0.90;0.90;;;;;;;15.23;64.19;102035.81;5112509;28;20479;-83
2022/07/16 03:36:12;;;;;;;0.90;0.90;;;;;;;15.25;64.32;102040.13;5112641;28;20061;-83
2022/07/16 03:41:21;;;;;;;1.20;1.20;;;;;;;15.24;65.54;102051.47;5112862;28;20112;-83
2022/07/16 03:43:46;;;;;;;1.10;1.10;;;;;;;15.24;64.30;102048.88;5113413;28;20475;-82
2022/07/16 03:46:13;;;;;;;1.10;1.10;;;;;;;15.26;64.38;102052.31;5112112;28;20016;-82
2022/07/16 03:48:39;;;;;;;0.75;0.75;;;;;;;15.28;64.42;102057.53;5113262;28;20048;-83
2022/07/16 03:51:06;;;;;;;0.77;0.77;;;;;;;15.27;64.42;102054.06;5113303;28;20103;-82
2022/07/16 03:53:32;;;;;;;0.80;0.80;;;;;;;15.31;64.10;102056.63;5112756;28;20030;-82
2022/07/16 03:55:57;;;;;;;1.03;0.93;;;;;;;15.33;65.03;102060.06;5112781;28;20383;-83
2022/07/16 03:58:22;;;;;;;0.80;0.80;;;;;;;15.32;64.45;102064.44;5113547;28;20081;-83
2022/07/16 04:00:47;;;;;;;0.83;0.83;;;;;;;15.33;64.22;102071.41;5111857;28;20027;-83
2022/07/16 04:03:13;;;;;;;0.70;0.70;;;;;;;15.35;64.80;102068.75;5113008;28;20164;-83
2022/07/16 04:05:38;;;;;;;0.70;0.70;;;;;;;15.34;64.75;102073.13;5113424;28;20020;-82
2022/07/16 04:08:04;;;;;;;0.87;0.87;;;;;;;15.34;64.56;102070.53;5112331;28;20028;-83
2022/07/16 04:10:29;;;;;;;1.00;1.00;;;;;;;15.36;64.62;102071.38;5113065;28;20112;-83
2022/07/16 04:12:54;;;;;;;0.90;0.90;;;;;;;15.37;65.18;102074.84;5112575;28;20027;-83
2022/07/16 04:15:19;;;;;;;0.80;0.80;;;;;;;15.36;65.58;102075.72;5111956;28;20020;-83
2022/07/16 04:17:45;;;;;;;0.97;0.97;;;;;;;15.36;66.21;102071.38;5113363;28;20015;-83
2022/07/16 04:20:10;;;;;;;1.20;1.20;;;;;;;15.38;66.01;102076.56;5113079;28;20050;-82
2022/07/16 04:22:36;;;;;;;0.97;0.97;;;;;;;15.40;66.49;102077.41;5112428;28;20114;-82
2022/07/16 04:25:02;;;;;;;0.90;0.90;;;;;;;15.42;66.16;102091.34;5112765;28;20493;-82
2022/07/16 04:27:27;;;;;;;0.73;0.73;;;;;;;15.44;66.14;102086.91;5113163;27;20027;-83
2022/07/16 04:29:52;;;;;;;0.83;0.83;;;;;;;15.46;65.75;102090.38;5111726;28;20051;-83
2022/07/16 04:32:17;;;;;;;0.90;0.90;;;;;;;15.49;67.30;102092.06;5112699;28;20028;-83
2022/07/16 04:34:43;;;;;;;0.97;0.90;;;;;;;15.49;66.53;102092.06;5113167;28;20026;-83
2022/07/16 04:37:08;;;;;;;0.60;0.60;;;;;;;15.48;65.89;102088.59;5111653;28;20034;-82
2022/07/16 04:39:33;;;;;;;0.90;0.90;;;;;;;15.48;67.39;102090.38;5113012;28;20390;-82
2022/07/16 04:41:59;;;;;;;0.60;0.60;;;;;;;15.49;66.67;102090.34;5112518;28;20550;-82
2022/07/16 04:44:24;;;;;;;1.53;0.93;;;;;;;15.51;65.78;102093.81;5111590;28;20023;-83
2022/07/16 04:46:49;;;;;;;0.70;0.70;;;;;;;15.51;67.00;102093.81;5112310;28;20031;-82
2022/07/16 04:49:14;;;;;;;0.67;0.67;;;;;;;15.50;66.03;102097.31;5112616;28;20083;-83
2022/07/16 04:51:40;;;;;;;0.83;0.83;;;;;;;15.50;66.25;102094.69;5111654;28;20065;-83
2022/07/16 04:54:11;;;;;;;0.70;0.70;;;;;;;15.51;66.36;102096.41;5112677;28;20031;-83
2022/07/16 04:56:36;;;;;;;1.20;1.10;;;;;;;15.53;68.63;102105.09;5111503;28;20089;-83
2022/07/16 04:59:02;;;;;;;1.60;1.47;;;;;;;15.51;70.00;102099.03;5112145;28;20027;-83
2022/07/16 05:01:27;;;;;;;1.10;1.10;;;;;;;15.52;68.25;102103.38;5112902;28;20047;-82
2022/07/16 05:03:52;;;;;;;1.20;1.10;;;;;;;15.54;69.92;102105.97;5111681;28;20114;-82
2022/07/16 05:06:18;;;;;;;1.63;1.27;;;;;;;15.56;70.06;102104.19;5112597;28;20039;-82
2022/07/16 05:08:43;;;;;;;1.20;1.10;;;;;;;15.56;70.11;102107.66;5112560;28;20020;-82
2022/07/16 05:11:09;;;;;;;1.20;1.10;;;;;;;15.62;74.14;102116.31;5111639;28;20024;-82
2022/07/16 05:13:35;;;;;;;1.52;1.42;;;;;;;15.63;70.15;102115.41;5114083;28;20042;-82
2022/07/16 05:16:01;;;;;;;1.27;1.20;;;;;;;15.67;71.76;102106.63;5115833;28;20455;-83
2022/07/16 05:18:26;;;;;;;2.28;1.70;;;;;;;15.69;76.30;102118.81;5115632;28;20043;-83
2022/07/16 05:20:51;;;;;;;4.93;3.47;;;;;;;15.72;78.13;102126.59;5115769;28;20076;-82
2022/07/16 05:23:17;;;;;;;7.37;3.63;;;;;;;15.75;78.67;102120.47;5116005;28;20031;-82
2022/07/16 05:25:42;;;;;;;7.00;3.43;;;;;;;15.82;78.65;102119.47;5115353;28;20024;-82
2022/07/16 05:28:07;;;;;;;4.57;2.60;;;;;;;15.89;75.99;102128.09;5115669;28;20520;-82
2022/07/16 05:30:32;;;;;;;3.77;2.30;;;;;;;15.93;75.96;102118.44;5115313;28;20031;-82
2022/07/16 05:32:58;;;;;;;5.97;2.80;;;;;;;16.02;79.34;102133.97;5114813;28;20024;-82
2022/07/16 05:35:23;;;;;;;4.73;3.20;;;;;;;16.09;79.13;102133.00;5116045;28;20024;-82
2022/07/16 05:37:48;;;;;;;6.60;3.00;;;;;;;16.14;79.65;102133.75;5115430;28;20024;-83
2022/07/16 05:40:14;;;;;;;5.30;3.00;;;;;;;16.20;79.76;102131.06;5114956;28;20030;-81
2022/07/16 05:42:39;;;;;;;5.18;3.15;;;;;;;16.26;79.20;102135.31;5115166;28;20028;-87
2022/07/16 05:45:05;;;;;;;6.07;3.10;;;;;;;16.28;79.11;102140.50;5115311;28;20095;-85
2022/07/16 05:47:34;;;;;;;4.73;3.00;;;;;;;16.34;77.39;102143.88;5114313;28;20084;-83
2022/07/16 05:50:04;;;;;;;5.25;2.55;;;;;;;16.39;78.62;102140.28;5114862;28;20368;-83
2022/07/16 05:52:29;;;;;;;5.25;2.80;;;;;;;16.42;77.80;102137.63;5115475;28;20024;-82
2022/07/16 05:54:54;;;;;;;6.30;3.03;;;;;;;16.46;77.97;102139.31;5103261;28;20020;-84
2022/07/16 05:57:20;;;;;;;2.87;2.50;;;;;;;16.50;77.57;102140.94;5095408;28;20020;-84
2022/07/16 05:59:45;;;;;;;4.00;2.30;;;;;;;16.52;77.32;102137.44;5094611;28;20027;-83
2022/07/16 06:02:10;;;;;;;4.53;2.33;;;;;;;16.59;77.47;102142.53;5094795;28;20062;-84
2022/07/16 06:04:36;;;;;;;4.23;2.50;;;;;;;16.63;76.86;102149.47;5094793;28;20026;-84
2022/07/16 06:07:01;;;;;;;3.70;2.30;;;;;;;16.69;77.06;102157.19;5093984;28;20016;-83
2022/07/16 06:09:26;;;;;;;5.47;2.73;;;;;;;16.75;76.13;102149.22;5094648;28;20077;-84
2022/07/16 06:11:52;;;;;;;3.30;2.37;;;;;;;16.84;75.66;102156.00;5101982;28;20047;-84
2022/07/16 06:14:17;;;;;;;3.70;2.20;;;;;;;16.89;75.66;102162.03;5114079;28;20024;-84
2022/07/16 06:16:42;;;;;;;3.73;2.10;;;;;;;16.99;75.12;102170.63;5115391;28;20094;-84
2022/07/16 06:19:08;;;;;;;2.90;2.10;;;;;;;17.19;75.04;102174.56;5114861;28;20036;-83
2022/07/16 06:21:33;;;;;;;3.43;2.20;;;;;;;17.56;73.58;102181.59;5114459;27;20091;-83
2022/07/16 06:23:59;;;;;;;2.80;2.20;;;;;;;17.79;73.31;102177.56;5114547;28;20024;-85
2022/07/16 06:26:24;;;;;;;2.97;2.00;;;;;;;18.09;71.58;102177.72;5114848;28;20020;-84
2022/07/16 06:28:49;;;;;;;3.13;1.90;;;;;;;18.45;70.03;102175.88;5114676;28;20065;-84
2022/07/16 06:31:14;;;;;;;3.63;1.90;;;;;;;18.81;69.35;102186.28;5114555;28;20024;-84
2022/07/16 06:33:40;;;;;;;1.70;1.60;;;;;;;18.97;68.55;102181.47;5114428;28;20458;-84
2022/07/16 06:36:05;;;;;;;2.00;1.60;;;;;;;19.22;68.89;102193.03;5113681;28;20024;-84
2022/07/16 06:38:31;;;;;;;3.20;1.60;;;;;;;19.42;67.66;102190.63;5114758;28;20027;-83
2022/07/16 06:40:56;;;;;;;4.15;1.70;;;;;;;19.70;64.84;102191.56;5114226;28;20038;-85
2022/07/16 06:43:22;;;;;;;3.23;1.50;;;;;;;19.75;63.97;102203.66;5113738;28;20031;-88
2022/07/16 06:45:47;;;;;;;1.60;1.50;;;;;;;19.71;63.01;102203.78;5114660;28;20432;-87
2022/07/16 06:48:12;;;;;;;2.03;1.70;;;;;;;19.67;63.85;102199.53;5114043;28;20019;-87
2022/07/16 06:50:41;;;;;;;2.50;1.60;;;;;;;19.75;62.94;102201.03;5114393;28;20040;-87
2022/07/16 06:53:06;;;;;;;1.40;1.30;;;;;;;19.95;63.62;102209.19;5113399;28;20035;-86
2022/07/16 06:55:31;;;;;;;2.53;1.43;;;;;;;20.26;62.12;102203.75;5114138;28;20027;-86
2022/07/16 06:57:57;;;;;;;2.23;1.50;;;;;;;20.42;60.28;102212.00;5113399;28;20107;-86
2022/07/16 07:00:22;;;;;;;2.97;1.50;;;;;;;20.34;59.88;102209.63;5114203;28;20044;-83
2022/07/16 07:02:47;;;;;;;3.37;1.60;;;;;;;20.26;58.14;102213.47;5113829;28;20055;-82
2022/07/16 07:05:13;;;;;;;1.50;1.40;;;;;;;20.20;60.45;102225.06;5113010;28;20011;-83
2022/07/16 07:07:38;;;;;;;2.77;1.70;;;;;;;19.92;56.39;102223.34;5114247;28;20028;-81
2022/07/16 07:10:04;;;;;;;3.43;1.80;;;;;;;19.71;57.16;102231.00;5113122;28;20019;-80
2022/07/16 07:12:29;;;;;;;1.63;1.50;;;;;;;19.74;57.87;102240.56;5113178;28;20547;-81
2022/07/16 07:14:54;;;;;;;2.17;1.20;;;;;;;19.84;56.83;102235.88;5113611;28;20360;-80
2022/07/16 07:17:19;;;;;;;1.47;1.33;;;;;;;19.96;58.18;102240.78;5111395;28;20027;-81
2022/07/16 07:19:45;;;;;;;2.37;1.10;;;;;;;20.15;57.65;102237.53;5113802;27;20488;-82
2022/07/16 07:22:10;;;;;;;1.60;1.10;;;;;;;20.40;58.06;102241.97;5134065;27;20027;-82
2022/07/16 07:24:36;;;;;;;2.53;1.27;;;;;;;20.60;58.33;102244.78;5125266;27;20060;-82
2022/07/16 07:27:01;;;;;;;2.13;1.13;;;;;;;20.78;55.87;102240.66;5107048;28;20032;-82
2022/07/16 07:29:26;;;;;;;1.03;0.93;;;;;;;20.90;56.00;102246.38;5093210;28;20024;-82
2022/07/16 07:31:51;;;;;;;1.10;1.10;;;;;;;21.00;52.66;102241.66;5092132;28;20020;-82
2022/07/16 07:34:17;;;;;;;3.00;1.10;;;;;;;21.08;53.13;102255.41;5109076;28;20031;-82
2022/07/16 07:36:42;;;;;;;1.17;1.10;;;;;;;21.17;54.57;102248.94;5112978;28;20471;-82
2022/07/16 07:39:07;;;;;;;1.53;1.00;;;;;;;21.25;52.15;102254.78;5112393;28;20040;-82
2022/07/16 07:41:33;;;;;;;1.63;1.50;;;;;;;21.08;52.22;102253.63;5113253;28;20367;-82
2022/07/16 07:43:58;;;;;;;2.93;1.60;;;;;;;20.78;52.54;102256.47;5112887;28;20024;-82
2022/07/16 07:46:24;;;;;;;1.50;1.40;;;;;;;20.74;55.00;102254.84;5112740;27;20015;-82
2022/07/16 07:48:49;;;;;;;1.83;1.38;;;;;;;20.78;55.04;102258.22;5107319;28;20495;-81
2022/07/16 07:51:15;;;;;;;1.27;1.17;;;;;;;20.76;53.68;102255.66;5112983;28;20106;-81
2022/07/16 07:53:40;;;;;;;3.43;1.40;;;;;;;20.74;55.27;102260.13;5112638;28;20383;-81
2022/07/16 07:56:06;;;;;;;1.57;1.47;;;;;;;20.81;55.49;102266.94;5113044;28;20387;-81
2022/07/16 07:58:31;;;;;;;2.30;1.48;;;;;;;20.85;54.64;102267.66;5113196;28;20024;-81
2022/07/16 08:00:56;;;;;;;2.03;1.40;;;;;;;20.89;54.17;102263.13;5112125;28;20106;-81
2022/07/16 08:03:23;;;;;;;1.20;1.10;;;;;;;20.91;54.21;102261.31;5112335;28;20054;-81
2022/07/16 08:05:48;;;;;;;1.70;0.95;;;;;;;20.92;53.35;102270.94;5113110;28;20031;-80
2022/07/16 08:08:14;;;;;;;2.27;1.20;;;;;;;20.92;53.70;102274.44;5112093;28;20478;-81
2022/07/16 08:10:40;;;;;;;3.42;1.67;;;;;;;20.95;53.01;102274.34;5113025;28;20031;-82
2022/07/16 08:13:05;;;;;;;1.83;1.43;;;;;;;20.78;51.15;102281.97;5112676;28;20031;-82
2022/07/16 08:15:31;;;;;;;2.50;1.60;;;;;;;20.60;52.98;102286.13;5104643;28;20117;-82
2022/07/16 08:17:56;;;;;;;1.70;1.50;;;;;;;20.63;52.77;102284.22;5091741;28;20032;-82
2022/07/16 08:20:21;;;;;;;2.67;1.30;;;;;;;20.80;53.62;102290.69;5091864;28;20024;-81
2022/07/16 08:22:47;;;;;;;1.30;1.20;;;;;;;21.00;51.37;102295.28;5092145;28;20451;-80
2022/07/16 08:27:57;;;;;;;1.23;1.10;;;;;;;21.25;52.53;102299.66;5091392;28;20182;-80
2022/07/16 08:30:22;;;;;;;2.23;1.43;;;;;;;21.35;47.81;102298.38;5092655;28;20556;-81
2022/07/16 08:32:47;;;;;;;1.67;1.40;;;;;;;21.44;51.72;102302.47;5093074;28;20016;-85
2022/07/16 08:35:12;;;;;;;1.60;1.30;;;;;;;21.56;51.25;102301.13;5091581;28;20024;-85
2022/07/16 08:37:41;;;;;;;1.70;1.23;;;;;;;21.66;50.88;102306.97;5092289;28;20024;-84
2022/07/16 08:40:10;;;;;;;1.10;1.08;;;;;;;21.81;50.77;102301.03;5095800;28;20065;-81
2022/07/16 08:42:39;;;;;;;2.53;1.42;;;;;;;21.99;50.28;102314.47;5111302;28;20020;-84
2022/07/16 08:45:07;;;;;;;1.20;1.10;;;;;;;22.17;49.71;102324.28;5112369;28;20093;-84
2022/07/16 08:47:33;;;;;;;1.00;1.00;;;;;;;22.34;50.46;102314.81;5113260;28;20023;-84
2022/07/16 08:50:00;;;;;;;3.72;1.52;;;;;;;22.15;47.12;102326.13;5115194;28;20043;-84
2022/07/16 08:52:27;;;;;;;3.38;1.65;;;;;;;21.67;49.23;102329.81;5116250;28;20474;-86
2022/07/16 08:54:54;;;;;;;1.67;1.52;;;;;;;21.45;48.12;102327.94;5116418;28;20035;-85
2022/07/16 08:57:21;;;;;;;2.80;1.50;;;;;;;21.28;47.85;102328.56;5115581;28;20047;-85
2022/07/16 08:59:47;;;;;;;1.40;1.30;;;;;;;21.40;48.87;102332.53;5116523;28;20117;-84
2022/07/16 09:02:13;;;;;;;1.20;0.82;;;;;;;21.70;48.82;102329.69;5116221;28;20074;-85
2022/07/16 09:04:39;;;;;;;1.05;1.00;;;;;;;21.99;47.95;102335.59;5115473;28;20024;-86
2022/07/16 09:07:05;;;;;;;3.58;1.80;;;;;;;21.81;46.76;102332.75;5115744;28;20110;-85
2022/07/16 09:09:30;;;;;;;1.70;1.17;;;;;;;21.55;48.29;102336.38;5116106;28;20035;-85
2022/07/16 09:11:55;;;;;;;1.37;1.27;;;;;;;21.47;46.96;102336.66;5115497;28;20031;-85
2022/07/16 09:14:21;;;;;;;1.33;1.23;;;;;;;21.48;47.27;102338.38;5107376;28;20008;-86
2022/07/16 09:16:49;;;;;;;3.50;1.50;;;;;;;21.21;47.08;102349.06;5094807;28;20024;-86
2022/07/16 09:19:20;;;;;;;2.88;1.70;;;;;;;21.35;47.41;102345.03;5095650;28;20032;-84
2022/07/16 09:22:09;;;;;;;2.38;1.60;;;;;;;21.37;47.74;102341.44;5095467;28;20028;-85
2022/07/16 09:24:36;;;;;;;2.80;1.50;;;;;;;21.50;47.33;102341.84;5095076;28;20016;-83
2022/07/16 09:27:04;;;;;;;1.92;1.63;;;;;;;21.74;46.37;102353.28;5095145;28;20012;-86
2022/07/16 09:29:42;;;;;;;2.78;1.42;;;;;;;21.72;46.58;102347.22;5095387;28;20020;-85
2022/07/16 09:32:07;;;;;;;2.03;1.40;;;;;;;21.86;47.08;102340.50;5094673;28;20024;-85
2022/07/16 09:34:32;;;;;;;1.73;1.40;;;;;;;22.21;46.66;102344.41;5096522;28;20026;-84
2022/07/16 09:37:04;;;;;;;1.93;1.47;;;;;;;22.41;43.20;102353.31;5105773;28;20375;-85
2022/07/16 09:39:30;;;;;;;1.35;1.13;;;;;;;22.32;44.25;102353.66;5115287;28;20023;-83
2022/07/16 09:41:56;;;;;;;2.75;1.50;;;;;;;21.83;45.58;102352.06;5115481;28;20047;-82
2022/07/16 09:44:30;;;;;;;2.27;1.30;;;;;;;21.64;46.46;102351.91;5114835;27;20456;-82
2022/07/16 09:46:58;;;;;;;1.50;1.38;;;;;;;21.27;46.70;102363.84;5111103;28;20347;-83
2022/07/16 09:49:23;;;;;;;3.08;1.50;;;;;;;20.96;48.00;102363.16;5115433;28;20115;-82
2022/07/16 09:51:48;;;;;;;4.83;1.80;;;;;;;20.85;46.60;102365.28;5114916;27;20119;-82
2022/07/16 09:54:26;;;;;;;3.40;1.47;;;;;;;20.97;46.60;102364.00;5115034;28;20027;-83
2022/07/16 09:57:09;;;;;;;3.03;1.40;;;;;;;21.19;46.87;102361.47;5114705;28;20060;-82
2022/07/16 09:59:35;;;;;;;3.53;1.52;;;;;;;21.49;47.44;102363.88;5094103;28;20028;-81
2022/07/16 10:02:03;;;;;;;1.27;1.00;;;;;;;21.97;46.97;102377.09;5094899;28;20502;-81
2022/07/16 10:04:28;;;;;;;3.95;1.50;;;;;;;21.95;45.10;102374.53;5094800;28;20077;-82
2022/07/16 10:06:53;;;;;;;3.23;1.60;;;;;;;22.02;45.98;102380.41;5093571;28;20035;-82
2022/07/16 10:09:20;;;;;;;3.10;1.40;;;;;;;22.30;46.43;102377.50;5094671;28;20077;-82
2022/07/16 10:11:45;;;;;;;;;;;;;;;22.60;45.97;102379.88;5095337;28;20086;-82
2022/07/16 10:14:11;;;;;;;2.28;1.45;;;;;;;22.80;44.12;102378.16;5093743;28;20305;-82
2022/07/16 10:16:40;;;;;;;3.70;1.33;;;;;;;22.76;43.88;102381.84;5096148;28;20484;-82
2022/07/16 10:19:06;;;;;;;3.22;1.40;;;;;;;22.76;43.63;102395.97;5094332;28;20027;-82
2022/07/16 10:21:32;;;;;;;2.65;1.30;;;;;;;22.88;43.93;102388.41;5114354;27;20019;-82
2022/07/16 10:24:14;;;;;;;1.27;0.97;;;;;;;23.09;43.59;102389.25;5114382;28;20095;-81
2022/07/16 10:26:40;;;;;;;2.35;1.30;;;;;;;23.09;42.96;102390.13;5115014;28;20118;-82
2022/07/16 10:29:05;;;;;;;3.40;1.50;;;;;;;22.89;40.49;102401.59;5104164;28;20102;-82
2022/07/16 10:34:42;;;;;;;1.60;1.30;;;;;;;22.82;41.15;102402.78;5094148;28;20156;-82
2022/07/16 10:37:11;;;;;;;2.23;1.53;;;;;;;22.90;41.89;102392.72;5108545;28;20072;-82
2022/07/16 10:39:57;;;;;;;1.52;1.30;;;;;;;23.23;43.70;102400.13;5114706;28;20028;-82
2022/07/16 10:42:24;;;;;;;1.52;1.38;;;;;;;23.47;40.72;102391.19;5113763;28;20072;-82
2022/07/16 10:44:50;;;;;;;2.00;1.33;;;;;;;23.55;39.25;102400.47;5113780;28;20467;-82
2022/07/16 10:47:17;;;;;;;2.28;1.50;;;;;;;23.19;40.08;102409.16;5114499;28;20030;-82
2022/07/16 10:49:42;;;;;;;3.13;1.50;;;;;;;;;;5113317;28;20135;-81
2022/07/16 10:52:08;;;;;;;1.80;1.27;;;;;;;22.17;40.75;102413.34;5114172;28;20555;-81
2022/07/16 10:54:37;;;;;;;;;;;;;;;21.93;41.24;102410.72;5114225;28;20024;-82
2022/07/16 10:57:11;;;;;;;1.90;1.42;;;;;;;21.77;42.14;102409.56;5113209;28;20309;-82
2022/07/16 10:59:39;;;;;;;2.13;1.30;;;;;;;21.73;41.47;102408.81;5107000;28;20344;-82
2022/07/16 11:02:07;;;;;;;1.20;1.10;;;;;;;21.73;42.05;102408.81;5093667;28;20023;-82
2022/07/16 11:04:42;;;;;;;2.22;1.30;;;;;;;21.67;43.13;102423.13;5092910;28;20092;-82
2022/07/16 11:07:13;;;;;;;3.07;1.50;;;;;;;21.54;44.30;102405.97;5093327;28;20020;-82
2022/07/16 11:09:44;;;;;;;2.90;1.27;;;;;;;21.63;43.68;102415.38;5108956;28;20391;-82
2022/07/16 11:12:14;;;;;;;1.35;1.00;;;;;;;21.78;44.75;102417.47;5113185;28;20024;-82
2022/07/16 11:14:41;;;;;;;1.17;1.08;;;;;;;21.92;44.79;102414.28;5113126;28;20027;-82
2022/07/16 11:17:07;;;;;;;2.25;1.30;;;;;;;22.21;42.74;102421.09;5112556;28;20107;-81
2022/07/16 11:19:42;;;;;;;3.42;1.40;;;;;;;22.28;42.13;102420.81;5113836;28;20114;-81
2022/07/16 11:22:08;;;;;;;1.27;1.20;;;;;;;22.57;42.86;102417.03;5113501;28;20024;-81
2022/07/16 11:24:34;;;;;;;1.10;1.10;;;;;;;22.97;43.54;102417.97;5112890;28;20110;-82
2022/07/16 11:27:01;;;;;;;1.20;1.07;;;;;;;23.48;41.27;102406.13;5113497;28;20098;-81
2022/07/16 11:29:29;;;;;;;1.30;1.20;;;;;;;23.84;40.48;102408.00;5113112;28;20555;-82
2022/07/16 11:31:55;;;;;;;2.92;1.40;;;;;;;23.87;40.26;102411.38;5112671;28;20019;-81